Time;durP1;ratioP1;P1;durP2;ratioP2;P2;SDS_P1;SDS_P2;PMS_P1;PMS_P2;Temp;Humidity;BMP_temperature;BMP_pressure;BME280_temperature;BME280_humidity;BME280_pressure;Samples;Min_cycle;Max_cycle;Signal;HPM_P1;HPM_P2
2024/01/21 00:00:31;;;;;;;;;6.00;5.00;;;;;0.29;97.15;101621.65;113122;237;39029;-56
2024/01/21 00:03:30;;;;;;;;;6.25;5.00;;;;;0.13;97.05;101628.11;113167;237;39728;-53
2024/01/21 00:06:10;;;;;;;;;6.00;3.25;;;;;0.04;96.86;101634.70;113109;237;39071;-52
2024/01/21 00:08:46;;;;;;;;;3.00;2.00;;;;;-0.09;96.68;101638.15;113151;237;40451;-52
2024/01/21 00:11:21;;;;;;;;;6.00;4.00;;;;;-0.25;96.68;101640.81;113109;237;39595;-52
2024/01/21 00:14:01;;;;;;;;;8.00;5.00;;;;;-0.37;96.66;101644.41;113142;237;39505;-55
2024/01/21 00:16:41;;;;;;;;;5.00;4.25;;;;;-0.49;96.61;101650.64;113101;237;39540;-55
2024/01/21 00:19:17;;;;;;;;;4.00;3.00;;;;;-0.64;96.48;101653.42;113102;237;39093;-52
2024/01/21 00:21:52;;;;;;;;;5.00;4.00;;;;;-0.76;96.39;101653.39;113123;237;40264;-52
2024/01/21 00:24:28;;;;;;;;;6.00;5.00;;;;;-0.89;96.34;101654.50;113151;237;41019;-50
2024/01/21 00:27:05;;;;;;;;;7.67;6.00;;;;;-0.96;96.21;101664.27;113135;237;40851;-50
2024/01/21 00:29:41;;;;;;;;;9.00;6.00;;;;;-1.01;96.28;101669.29;113140;237;40914;-54
2024/01/21 00:32:22;;;;;;;;;8.00;6.00;;;;;-1.06;96.14;101669.24;113128;237;40030;-55
2024/01/21 00:34:59;;;;;;;;;7.00;5.00;;;;;-1.15;96.13;101670.77;113103;237;40172;-53
2024/01/21 00:37:38;;;;;;;;;6.00;5.00;;;;;-1.27;96.08;101669.48;113144;237;39515;-53
2024/01/21 00:40:13;;;;;;;;;5.25;4.25;;;;;-1.34;96.00;101674.82;113112;237;39727;-53
2024/01/21 00:42:49;;;;;;;;;5.00;4.00;;;;;-1.41;95.82;101679.08;113156;237;39663;-55
2024/01/21 00:45:26;;;;;;;;;4.00;4.00;;;;;-1.47;95.94;101682.41;113105;237;40530;-56
2024/01/21 00:48:06;;;;;;;;;6.25;4.25;;;;;-1.53;95.88;101685.55;113141;237;40158;-52
2024/01/21 00:50:43;;;;;;;;;4.00;3.00;;;;;-1.64;95.91;101691.99;113121;237;39358;-51
2024/01/21 00:53:22;;;;;;;;;5.25;3.00;;;;;-1.71;96.00;101695.35;113120;237;39604;-52
2024/01/21 00:56:01;;;;;;;;;7.00;5.00;;;;;-1.78;95.91;101702.27;113097;237;39721;-51
2024/01/21 00:58:40;;;;;;;;;4.00;3.00;;;;;-1.86;95.83;101707.09;113124;237;41035;-56
2024/01/21 01:01:19;;;;;;;;;4.00;3.67;;;;;-1.94;95.91;101714.90;113111;237;39400;-56
2024/01/21 01:03:59;;;;;;;;;4.00;3.00;;;;;-2.02;95.88;101721.86;113103;237;39060;-54
2024/01/21 01:06:38;;;;;;;;;4.67;4.00;;;;;-2.10;96.00;101727.59;113088;237;39269;-54
2024/01/21 01:09:20;;;;;;;;;4.00;2.00;;;;;-2.18;96.05;101730.77;113110;237;40062;-54
2024/01/21 01:11:57;;;;;;;;;4.00;3.00;;;;;-2.20;96.09;101732.12;113123;237;39665;-55
2024/01/21 01:14:34;;;;;;;;;5.00;4.00;;;;;-2.23;96.17;101734.38;113146;238;40827;-53
2024/01/21 01:17:08;;;;;;;;;4.75;3.75;;;;;-2.28;96.26;101735.14;113121;238;41461;-53
2024/01/21 01:19:44;;;;;;;;;4.00;4.00;;;;;-2.30;96.48;101738.10;113123;238;40457;-54
2024/01/21 01:22:24;;;;;;;;;7.00;4.00;;;;;-2.32;96.55;101739.07;113100;237;39652;-55
2024/01/21 01:25:02;;;;;;;;;9.00;6.25;;;;;-2.37;96.54;101744.05;113105;237;40626;-54
2024/01/21 01:27:41;;;;;;;;;7.00;5.25;;;;;-2.36;96.57;101747.92;113127;237;40039;-54
2024/01/21 01:30:19;;;;;;;;;5.00;4.00;;;;;-2.41;96.73;101758.91;113113;237;39191;-54
2024/01/21 01:32:56;;;;;;;;;6.00;5.00;;;;;-2.43;96.64;101760.96;113136;237;40874;-52
2024/01/21 01:35:32;;;;;;;;;5.00;4.33;;;;;-2.45;96.56;101762.98;113104;237;40260;-52
2024/01/21 01:38:06;;;;;;;;;8.00;6.00;;;;;-2.45;96.59;101763.33;113154;237;41239;-51
2024/01/21 01:40:41;;;;;;;;;7.00;5.00;;;;;-2.49;96.41;101760.55;113109;237;39225;-51
2024/01/21 01:43:19;;;;;;;;;5.00;4.00;;;;;-2.54;96.35;101764.98;113155;237;39312;-51
2024/01/21 01:46:00;;;;;;;;;6.25;5.00;;;;;-2.59;96.33;101766.85;113081;237;39730;-52
2024/01/21 01:48:40;;;;;;;;;9.00;7.25;;;;;-2.63;96.28;101775.33;113120;237;39698;-55
2024/01/21 01:51:20;;;;;;;;;9.00;6.00;;;;;-2.70;96.20;101776.01;113107;237;41217;-53
2024/01/21 01:53:57;;;;;;;;;5.50;4.00;;;;;-2.80;96.22;101784.59;113117;237;41589;-53
2024/01/21 01:56:36;;;;;;;;;3.00;3.00;;;;;-2.88;96.14;101791.84;113097;237;39641;-53
2024/01/21 01:59:16;;;;;;;;;5.00;4.50;;;;;-2.97;96.27;101793.10;113120;237;39995;-51
2024/01/21 02:01:52;;;;;;;;;7.00;5.00;;;;;-3.03;96.26;101790.57;113109;237;39096;-51
2024/01/21 02:04:32;;;;;;;;;6.00;5.00;;;;;-3.12;96.27;101794.67;113115;237;39367;-55
2024/01/21 02:07:13;;;;;;;;;4.00;4.00;;;;;-3.18;96.35;101799.19;113102;237;39415;-55
2024/01/21 02:09:51;;;;;;;;;9.75;6.50;;;;;-3.22;96.30;101803.91;113219;237;39541;-51
2024/01/21 02:12:32;;;;;;;;;7.75;5.00;;;;;-3.25;96.29;101810.60;113193;237;39965;-52
2024/01/21 02:15:09;;;;;;;;;10.00;6.00;;;;;-3.30;96.25;101810.46;113119;237;39667;-53
2024/01/21 02:17:47;;;;;;;;;6.00;4.00;;;;;-3.34;96.15;101812.59;113119;237;40545;-52
2024/01/21 02:20:22;;;;;;;;;4.00;3.00;;;;;-3.40;96.15;101811.23;113114;237;40126;-55
2024/01/21 02:22:59;;;;;;;;;3.25;3.00;;;;;-3.41;96.09;101820.65;113120;237;40053;-52
2024/01/21 02:25:34;;;;;;;;;7.00;4.00;;;;;-3.47;96.05;101821.09;113105;237;39249;-51
2024/01/21 02:28:14;;;;;;;;;7.25;5.25;;;;;-3.55;96.01;101823.89;113161;237;39525;-53
2024/01/21 02:30:55;;;;;;;;;7.00;4.00;;;;;-3.61;95.87;101828.68;113123;237;39614;-54
2024/01/21 02:33:35;;;;;;;;;5.00;4.00;;;;;-3.71;95.97;101825.45;113121;237;40519;-54
2024/01/21 02:36:19;;;;;;;;;6.00;4.00;;;;;-3.82;95.98;101833.13;113103;237;40975;-54
2024/01/21 02:38:59;;;;;;;;;5.00;4.00;;;;;-3.96;96.01;101839.33;113115;237;40166;-54
2024/01/21 02:41:35;;;;;;;;;7.00;5.00;;;;;-4.04;95.97;101837.71;113112;237;40582;-54
2024/01/21 02:44:11;;;;;;;;;7.00;4.00;;;;;-4.09;96.03;101839.89;113075;237;40996;-53
2024/01/21 02:46:46;;;;;;;;;3.50;2.50;;;;;-4.06;96.14;101841.31;113112;237;39847;-54
2024/01/21 02:49:28;;;;;;;;;7.75;5.00;;;;;-4.07;96.08;101838.88;113115;237;40515;-54
2024/01/21 02:52:05;;;;;;;;;9.00;6.00;;;;;-4.09;96.14;101840.74;113113;237;39519;-54
2024/01/21 02:54:41;;;;;;;;;6.00;5.00;;;;;-4.21;95.99;101834.88;113134;237;39753;-52
2024/01/21 02:57:20;;;;;;;;;5.00;4.00;;;;;-4.25;96.02;101841.73;113138;237;41253;-51
2024/01/21 02:59:56;;;;;;;;;7.00;4.25;;;;;-4.28;95.92;101846.77;113101;237;38952;-55
2024/01/21 03:02:35;;;;;;;;;6.00;4.00;;;;;-4.35;95.83;101854.78;113091;237;39853;-53
2024/01/21 03:05:09;;;;;;;;;6.00;4.50;;;;;-4.44;95.79;101861.13;113133;237;40841;-54
2024/01/21 03:07:46;;;;;;;;;3.00;2.75;;;;;-4.53;95.84;101865.33;113138;237;40098;-51
2024/01/21 03:10:25;;;;;;;;;4.00;3.00;;;;;-4.59;95.91;101863.10;113094;237;39581;-49
2024/01/21 03:13:02;;;;;;;;;6.00;4.25;;;;;-4.64;95.87;101856.77;113016;237;40995;-53
2024/01/21 03:15:40;;;;;;;;;6.50;4.75;;;;;-4.71;95.78;101855.83;113096;237;39483;-53
2024/01/21 03:18:18;;;;;;;;;9.75;6.00;;;;;-4.81;95.71;101854.44;113120;237;40564;-55
2024/01/21 03:20:55;;;;;;;;;4.67;4.00;;;;;-4.84;95.76;101855.76;113120;237;40276;-56
2024/01/21 03:23:37;;;;;;;;;7.00;5.00;;;;;-4.81;95.77;101856.02;113116;237;39385;-51
2024/01/21 03:26:14;;;;;;;;;5.33;4.00;;;;;-4.82;95.69;101861.68;113082;237;39036;-50
2024/01/21 03:28:54;;;;;;;;;5.00;3.00;;;;;-4.86;95.65;101870.41;113116;237;40931;-50
2024/01/21 03:31:30;;;;;;;;;5.00;4.00;;;;;-4.85;95.66;101874.23;113121;237;39739;-50
2024/01/21 03:34:09;;;;;;;;;6.00;4.00;;;;;-4.90;95.46;101877.79;113115;237;39313;-50
2024/01/21 03:36:46;;;;;;;;;4.00;3.00;;;;;-4.98;95.43;101880.88;113141;237;39954;-50
2024/01/21 03:39:28;;;;;;;;;5.00;4.00;;;;;-5.11;95.29;101884.87;113122;237;39551;-50
2024/01/21 03:42:10;;;;;;;;;6.00;3.75;;;;;-5.19;95.31;101886.22;113141;237;39919;-50
2024/01/21 03:44:47;;;;;;;;;6.00;5.00;;;;;-5.32;95.26;101887.36;113151;237;40079;-54
2024/01/21 03:47:25;;;;;;;;;6.00;5.00;;;;;-5.37;95.24;101895.75;113124;237;40206;-54
2024/01/21 03:50:00;;;;;;;;;6.75;5.00;;;;;-5.50;95.09;101897.29;113139;237;39562;-56
2024/01/21 03:52:37;;;;;;;;;5.00;3.75;;;;;-5.59;95.08;101899.52;113134;237;39493;-52
2024/01/21 03:55:19;;;;;;;;;6.00;5.00;;;;;-5.61;95.09;101900.96;113108;237;41418;-52
2024/01/21 03:57:56;;;;;;;;;4.00;3.00;;;;;-5.68;95.04;101900.50;113144;237;39094;-52
2024/01/21 04:00:34;;;;;;;;;2.67;2.00;;;;;-5.72;95.02;101905.56;113129;237;39364;-52
2024/01/21 04:03:11;;;;;;;;;4.25;3.25;;;;;-5.74;95.00;101905.63;113153;237;38945;-52
2024/01/21 04:05:46;;;;;;;;;4.00;2.00;;;;;-5.81;94.92;101904.98;113115;237;40057;-52
2024/01/21 04:08:23;;;;;;;;;7.00;5.00;;;;;-5.88;94.93;101902.75;113112;237;39952;-50
2024/01/21 04:11:03;;;;;;;;;3.00;3.00;;;;;-5.96;94.92;101904.09;113118;237;40136;-50
2024/01/21 04:13:41;;;;;;;;;10.00;5.50;;;;;-6.07;94.85;101911.95;113179;237;41043;-54
2024/01/21 04:16:19;;;;;;;;;4.75;3.00;;;;;-6.14;94.86;101913.41;113117;237;40073;-53
2024/01/21 04:18:58;;;;;;;;;8.00;4.00;;;;;-6.19;94.79;101918.48;113132;237;41133;-53
2024/01/21 04:21:37;;;;;;;;;5.50;4.00;;;;;-6.23;94.83;101919.46;113099;237;41247;-54
2024/01/21 04:24:21;;;;;;;;;3.25;2.00;;;;;-6.26;94.83;101920.77;113129;237;39570;-54
2024/01/21 04:26:58;;;;;;;;;5.00;4.00;;;;;-6.32;94.79;101917.29;113106;238;40031;-54
2024/01/21 04:29:35;;;;;;;;;4.00;3.00;;;;;-6.32;94.84;101914.14;113128;237;39598;-52
2024/01/21 04:32:17;;;;;;;;;2.00;2.00;;;;;-6.31;94.78;101913.40;113123;237;39523;-52
2024/01/21 04:34:53;;;;;;;;;3.00;3.00;;;;;-6.41;94.63;101917.23;113059;238;42075;-51
2024/01/21 04:37:28;;;;;;;;;4.00;3.00;;;;;-6.56;94.57;101919.59;113158;237;39251;-53
2024/01/21 04:40:03;;;;;;;;;4.67;3.67;;;;;-6.59;94.44;101928.42;113099;237;39937;-52
2024/01/21 04:42:40;;;;;;;;;5.25;3.50;;;;;-6.73;94.31;101924.98;113157;237;39915;-55
2024/01/21 04:45:20;;;;;;;;;3.67;3.00;;;;;-6.91;94.26;101924.42;113095;237;40321;-55
2024/01/21 04:47:54;;;;;;;;;1.75;1.00;;;;;-7.04;94.21;101921.64;113160;237;40290;-52
2024/01/21 04:50:30;;;;;;;;;2.00;1.25;;;;;-7.10;94.30;101923.91;113106;237;39918;-52
2024/01/21 04:53:08;;;;;;;;;3.00;2.00;;;;;-7.08;94.53;101927.70;113106;238;39873;-52
2024/01/21 04:55:47;;;;;;;;;3.00;2.00;;;;;-7.04;94.48;101927.94;113097;238;39301;-52
2024/01/21 04:58:23;;;;;;;;;4.00;2.00;;;;;-7.11;94.39;101924.09;113125;237;41108;-54
2024/01/21 05:01:01;;;;;;;;;2.00;1.75;;;;;-7.20;94.41;101922.58;113171;237;39567;-54
2024/01/21 05:03:38;;;;;;;;;3.00;3.00;;;;;-7.16;94.43;101932.28;113117;238;40882;-53
2024/01/21 05:06:19;;;;;;;;;3.50;2.00;;;;;-7.08;94.36;101931.02;112739;237;416424;-54
2024/01/21 05:08:54;;;;;;;;;1.25;1.00;;;;;-7.17;94.13;101936.52;113145;238;40019;-53
2024/01/21 05:11:30;;;;;;;;;1.33;1.00;;;;;-7.12;94.16;101940.23;113119;237;39727;-54
2024/01/21 05:14:07;;;;;;;;;3.50;2.00;;;;;-7.13;94.28;101945.50;113136;238;39404;-54
2024/01/21 05:16:48;;;;;;;;;1.00;1.00;;;;;-7.17;94.33;101948.58;113112;237;39658;-55
2024/01/21 05:19:25;;;;;;;;;2.00;2.00;;;;;-7.27;94.35;101953.55;113145;237;40424;-52
2024/01/21 05:22:05;;;;;;;;;3.00;2.25;;;;;-7.30;94.19;101952.41;113094;237;39553;-52
2024/01/21 05:24:43;;;;;;;;;2.00;1.25;;;;;-7.32;94.23;101955.27;113100;237;39714;-54
2024/01/21 05:27:21;;;;;;;;;2.00;2.00;;;;;-7.39;94.20;101953.34;113136;237;40171;-55
2024/01/21 05:29:56;;;;;;;;;2.00;2.00;;;;;-7.44;94.14;101957.14;113099;237;39749;-55
2024/01/21 05:32:34;;;;;;;;;3.00;2.00;;;;;-7.43;94.18;101958.88;113110;238;40388;-51
2024/01/21 05:35:10;;;;;;;;;3.00;3.00;;;;;-7.49;94.04;101959.36;113094;237;39455;-50
2024/01/21 05:37:47;;;;;;;;;3.00;2.00;;;;;-7.52;93.99;101964.35;113135;237;39762;-51
2024/01/21 05:40:25;;;;;;;;;2.00;1.00;;;;;-7.56;93.92;101965.32;113099;237;38887;-50
2024/01/21 05:43:05;;;;;;;;;1.00;1.00;;;;;-7.65;93.92;101969.04;113138;237;40066;-55
2024/01/21 05:45:45;;;;;;;;;2.00;2.00;;;;;-7.73;93.99;101970.63;113127;237;40535;-56
2024/01/21 05:48:21;;;;;;;;;1.00;1.00;;;;;-7.76;93.90;101974.35;113105;237;41005;-55
2024/01/21 05:51:00;;;;;;;;;1.25;1.00;;;;;-7.78;93.88;101978.61;113135;237;39406;-56
2024/01/21 05:53:36;;;;;;;;;1.00;1.00;;;;;-7.85;93.88;101981.55;113145;237;40709;-50
2024/01/21 05:56:17;;;;;;;;;2.00;1.00;;;;;-7.90;93.81;101982.88;113115;237;39092;-50
2024/01/21 05:58:54;;;;;;;;;2.00;2.00;;;;;-7.98;93.77;101984.11;113061;238;41213;-55
2024/01/21 06:01:32;;;;;;;;;3.00;2.00;;;;;-8.02;93.61;101976.88;113147;237;39752;-56
2024/01/21 06:04:10;;;;;;;;;2.00;2.00;;;;;-8.04;93.53;101979.02;113149;237;41583;-55
2024/01/21 06:06:46;;;;;;;;;4.00;2.00;;;;;-7.98;93.62;101984.64;113153;237;40504;-54
2024/01/21 06:09:21;;;;;;;;;2.50;2.00;;;;;-7.94;93.58;101993.64;113175;237;40504;-51
2024/01/21 06:12:01;;;;;;;;;3.00;2.00;;;;;-7.91;93.58;101987.27;113118;237;39738;-52
2024/01/21 06:14:41;;;;;;;;;2.00;2.00;;;;;-7.94;93.34;101988.39;113102;237;39434;-49
2024/01/21 06:17:22;;;;;;;;;3.00;2.00;;;;;-7.91;93.21;101987.64;113109;237;40416;-50
2024/01/21 06:19:59;;;;;;;;;2.00;2.00;;;;;-7.94;93.08;101988.75;113120;237;39355;-50
2024/01/21 06:22:37;;;;;;;;;3.00;2.00;;;;;-7.94;93.10;101990.52;113140;237;38922;-50
2024/01/21 06:25:22;;;;;;;;;4.00;3.00;;;;;-7.90;93.05;101994.77;113093;237;39529;-50
2024/01/21 06:27:57;;;;;;;;;2.00;2.00;;;;;-7.85;93.02;101997.65;113153;237;40266;-55
2024/01/21 06:30:33;;;;;;;;;4.00;3.00;;;;;-7.76;92.98;102004.60;113111;237;40125;-56
2024/01/21 06:33:14;;;;;;;;;3.00;2.25;;;;;-7.72;92.89;102001.89;113139;237;39419;-50
2024/01/21 06:35:53;;;;;;;;;5.00;3.00;;;;;-7.71;92.89;102006.77;113099;237;39854;-50
2024/01/21 06:38:31;;;;;;;;;2.00;2.00;;;;;-7.72;92.86;102009.08;113099;237;40318;-55
2024/01/21 06:41:08;;;;;;;;;4.00;3.00;;;;;-7.71;92.88;102016.92;113132;237;40822;-56
2024/01/21 06:43:41;;;;;;;;;1.00;1.00;;;;;-7.66;92.68;102019.42;113097;237;41709;-56
2024/01/21 06:46:22;;;;;;;;;3.00;2.50;;;;;-7.59;92.77;102018.73;113115;237;41141;-56
2024/01/21 06:48:58;;;;;;;;;3.50;3.00;;;;;-7.54;92.72;102021.59;113098;237;40391;-56
2024/01/21 06:51:43;;;;;;;;;3.75;3.00;;;;;-7.54;92.82;102024.03;113075;237;40017;-56
2024/01/21 06:54:22;;;;;;;;;4.00;3.00;;;;;-7.45;92.90;102023.65;113112;237;41298;-54
2024/01/21 06:56:56;;;;;;;;;4.00;3.00;;;;;-7.28;93.02;102026.56;113125;237;39997;-54
2024/01/21 06:59:31;;;;;;;;;3.75;2.75;;;;;-7.14;93.22;102030.77;113159;237;40266;-51
2024/01/21 07:02:13;;;;;;;;;5.00;4.00;;;;;-7.02;93.44;102034.32;113097;237;39304;-51
2024/01/21 07:04:53;;;;;;;;;4.00;3.00;;;;;-6.87;93.64;102036.20;113115;237;40744;-55
2024/01/21 07:07:31;;;;;;;;;3.67;3.00;;;;;-6.76;93.68;102042.73;113153;237;39534;-54
2024/01/21 07:10:07;;;;;;;;;9.00;7.00;;;;;-6.64;93.79;102031.05;113090;237;39738;-53
2024/01/21 07:12:45;;;;;;;;;7.00;5.00;;;;;-6.45;93.89;102035.29;113148;237;40423;-54
2024/01/21 07:15:21;;;;;;;;;6.00;4.50;;;;;-6.27;93.97;102033.52;113091;237;39025;-55
2024/01/21 07:17:55;;;;;;;;;5.50;3.75;;;;;-6.07;93.97;102039.95;113187;237;40771;-50
2024/01/21 07:20:34;;;;;;;;;4.00;4.00;;;;;-5.95;94.07;102042.58;113226;237;39772;-51
2024/01/21 07:23:10;;;;;;;;;4.00;4.00;;;;;-5.83;94.09;102042.55;113170;237;39340;-50
2024/01/21 07:25:51;;;;;;;;;5.75;4.00;;;;;-5.73;94.18;102041.20;113124;237;41157;-50
2024/01/21 07:28:29;;;;;;;;;6.00;4.00;;;;;-5.67;94.31;102044.52;113122;237;39363;-51
2024/01/21 07:31:09;;;;;;;;;7.00;5.67;;;;;-5.55;94.44;102042.40;113088;237;40131;-50
2024/01/21 07:33:47;;;;;;;;;6.25;4.00;;;;;-5.47;94.59;102044.24;113133;237;39621;-55
2024/01/21 07:36:23;;;;;;;;;5.00;4.25;;;;;-5.31;94.80;102049.03;113095;237;40214;-56
2024/01/21 07:39:03;;;;;;;;;5.00;3.00;;;;;-5.03;95.13;102047.91;113129;237;40783;-50
2024/01/21 07:41:42;;;;;;;;;6.00;4.00;;;;;-4.77;95.24;102047.89;113111;237;40959;-50
2024/01/21 07:44:21;;;;;;;;;3.50;3.00;;;;;-4.60;95.37;102045.75;113117;237;41283;-55
2024/01/21 07:47:01;;;;;;;;;6.00;4.00;;;;;-4.40;95.53;102042.55;113125;237;39200;-55
2024/01/21 07:49:38;;;;;;;;;6.00;5.00;;;;;-4.23;95.57;102040.19;113131;237;40057;-53
2024/01/21 07:52:16;;;;;;;;;6.00;5.00;;;;;-3.87;95.83;102045.52;113100;237;39458;-52
2024/01/21 07:54:51;;;;;;;;;7.00;5.00;;;;;-3.78;95.77;102048.36;113113;237;39412;-55
2024/01/21 07:57:30;;;;;;;;;6.67;5.33;;;;;-3.71;95.78;102051.61;113100;238;39473;-53
2024/01/21 08:00:07;;;;;;;;;6.00;5.00;;;;;-3.59;95.89;102053.24;113100;237;39337;-55
2024/01/21 08:02:45;;;;;;;;;10.75;7.00;;;;;-3.14;96.18;102048.45;113171;237;39902;-52
2024/01/21 08:05:19;;;;;;;;;8.25;7.00;;;;;-2.92;95.69;102051.98;113118;237;39820;-52
2024/01/21 08:07:55;;;;;;;;;8.75;6.75;;;;;-2.73;95.79;102051.34;113178;237;39355;-51
2024/01/21 08:10:32;;;;;;;;;8.00;6.00;;;;;-1.60;96.35;102052.96;113122;237;39552;-51
2024/01/21 08:13:11;;;;;;;;;10.00;8.00;;;;;-0.98;95.41;102052.42;113112;238;40712;-52
2024/01/21 08:15:51;;;;;;;;;9.00;8.00;;;;;-0.80;94.50;102050.48;113128;237;40187;-51
2024/01/21 08:18:28;;;;;;;;;11.00;9.00;;;;;0.04;94.45;102050.15;113170;237;40073;-51
2024/01/21 08:21:03;;;;;;;;;10.00;8.33;;;;;0.18;93.13;102053.14;113120;237;40561;-51
2024/01/21 08:23:43;;;;;;;;;12.50;8.00;;;;;-0.38;92.28;102054.16;113152;237;39390;-51
2024/01/21 08:26:21;;;;;;;;;9.00;8.00;;;;;-0.90;92.03;102064.40;113151;238;39611;-51
2024/01/21 08:28:59;;;;;;;;;8.00;7.00;;;;;-1.31;92.17;102066.42;113128;237;39424;-54
2024/01/21 08:31:44;;;;;;;;;13.00;9.00;;;;;-1.54;92.29;102061.89;113071;237;39769;-55
2024/01/21 08:34:17;;;;;;;;;9.00;7.25;;;;;-1.66;92.37;102061.37;113125;237;39332;-55
2024/01/21 08:36:54;;;;;;;;;9.25;6.00;;;;;-1.73;92.46;102060.64;113091;237;40068;-57
2024/01/21 08:39:32;;;;;;;;;12.00;8.00;;;;;-1.78;92.48;102062.29;113157;237;39767;-56
2024/01/21 08:42:07;;;;;;;;;11.00;9.00;;;;;-1.80;92.66;102060.06;113098;237;41109;-56
2024/01/21 08:44:44;;;;;;;;;14.25;10.50;;;;;-1.74;92.90;102060.02;113146;237;39861;-53
2024/01/21 08:47:19;;;;;;;;;14.25;10.50;;;;;-1.47;93.72;102061.17;113057;237;39595;-52
2024/01/21 08:49:56;;;;;;;;;19.25;13.75;;;;;-0.69;94.84;102051.50;113087;238;40182;-54
2024/01/21 08:52:31;;;;;;;;;15.75;13.00;;;;;0.10;94.65;102050.85;113148;237;40399;-52
2024/01/21 08:55:08;;;;;;;;;22.00;15.00;;;;;0.36;93.81;102054.77;113105;237;41083;-52
2024/01/21 08:57:45;;;;;;;;;21.00;13.50;;;;;0.52;93.28;102056.39;113123;237;41237;-51
2024/01/21 09:00:21;;;;;;;;;23.00;14.75;;;;;0.71;93.16;102059.20;113114;237;40155;-51
2024/01/21 09:02:58;;;;;;;;;22.50;17.75;;;;;0.72;92.70;102059.83;113143;237;39898;-53
2024/01/21 09:05:38;;;;;;;;;23.75;17.75;;;;;0.54;92.50;102058.21;113143;237;39502;-53
2024/01/21 09:08:17;;;;;;;;;22.25;17.00;;;;;0.51;92.80;102059.60;113141;237;41905;-54
2024/01/21 09:10:56;;;;;;;;;23.25;17.50;;;;;0.75;93.56;102060.77;113108;237;39231;-55
2024/01/21 09:13:37;;;;;;;;;26.25;19.50;;;;;1.21;93.93;102053.44;113131;237;38956;-53
2024/01/21 09:16:19;;;;;;;;;31.00;21.00;;;;;1.93;94.20;102054.24;113115;237;39346;-51
2024/01/21 09:18:57;;;;;;;;;27.50;19.75;;;;;2.61;93.85;102054.80;113120;237;41499;-54
2024/01/21 09:21:34;;;;;;;;;40.25;29.00;;;;;2.92;93.30;102053.08;113091;237;40451;-54
2024/01/21 09:24:09;;;;;;;;;29.50;22.75;;;;;3.23;93.44;102046.05;113138;237;39435;-53
2024/01/21 09:26:46;;;;;;;;;27.25;21.00;;;;;3.27;92.71;102045.42;113117;237;39628;-52
2024/01/21 09:29:26;;;;;;;;;32.00;23.00;;;;;3.28;92.47;102048.20;113132;237;41063;-55
2024/01/21 09:32:06;;;;;;;;;28.75;21.75;;;;;3.29;92.16;102045.11;113114;237;39553;-56
2024/01/21 09:34:43;;;;;;;;;25.25;20.00;;;;;3.31;92.05;102042.68;113141;237;39648;-54
2024/01/21 09:37:23;;;;;;;;;30.25;21.75;;;;;3.30;91.94;102033.28;113084;237;40601;-54
2024/01/21 09:40:00;;;;;;;;;37.00;27.00;;;;;3.22;92.01;102036.31;113131;237;40080;-51
2024/01/21 09:42:38;;;;;;;;;30.25;22.50;;;;;3.10;92.03;102039.83;113109;237;39858;-52
2024/01/21 09:45:14;;;;;;;;;38.50;26.50;;;;;2.95;91.82;102046.14;113129;237;40918;-50
2024/01/21 09:47:49;;;;;;;;;29.50;21.75;;;;;2.89;91.32;102048.50;113143;238;40463;-53
2024/01/21 09:50:27;;;;;;;;;30.25;20.50;;;;;2.81;91.23;102046.52;113116;237;39896;-54
2024/01/21 09:53:04;;;;;;;;;29.25;20.00;;;;;2.61;91.29;102044.98;113156;237;39403;-56
2024/01/21 09:55:37;;;;;;;;;28.00;19.67;;;;;2.50;91.67;102040.91;113131;239;39687;-56
2024/01/21 09:58:17;;;;;;;;;29.75;21.50;;;;;2.60;91.68;102041.31;113143;239;40037;-55
2024/01/21 10:00:53;;;;;;;;;29.00;20.00;;;;;2.69;91.83;102044.63;113121;239;40634;-56
2024/01/21 10:03:30;;;;;;;;;29.00;22.00;;;;;2.78;91.77;102040.51;113123;239;40657;-55
2024/01/21 10:06:13;;;;;;;;;32.00;23.00;;;;;2.90;91.62;102043.98;113122;239;39835;-53
2024/01/21 10:08:53;;;;;;;;;29.00;23.00;;;;;2.85;91.36;102036.80;113102;239;39254;-49
2024/01/21 10:11:33;;;;;;;;;36.00;26.00;;;;;2.77;91.31;102033.98;113120;239;40809;-50
2024/01/21 10:14:09;;;;;;;;;27.00;21.00;;;;;2.65;91.25;102037.82;113128;239;41125;-50
2024/01/21 10:16:47;;;;;;;;;39.75;26.75;;;;;2.61;91.35;102040.54;113118;239;39648;-50
2024/01/21 10:19:30;;;;;;;;;34.00;26.00;;;;;2.61;91.21;102031.29;113146;239;40400;-51
2024/01/21 10:22:16;;;;;;;;;43.00;31.00;;;;;2.59;91.50;102029.30;113104;239;39133;-51
2024/01/21 10:24:56;;;;;;;;;32.00;24.00;;;;;2.60;91.36;102024.05;113120;239;40110;-51
2024/01/21 10:27:31;;;;;;;;;28.50;22.50;;;;;2.66;91.25;102022.05;113163;239;41279;-54
2024/01/21 10:30:13;;;;;;;;;25.00;16.25;;;;;2.56;91.51;102024.69;113205;239;39383;-56
2024/01/21 10:32:50;;;;;;;;;26.33;20.00;;;;;2.66;91.24;102021.92;113271;239;39490;-55
2024/01/21 10:35:29;;;;;;;;;30.75;21.00;;;;;2.61;91.20;102023.80;113234;239;41461;-54
2024/01/21 10:38:11;;;;;;;;;37.00;24.00;;;;;2.63;91.18;102017.65;113226;239;41267;-52
2024/01/21 10:40:50;;;;;;;;;33.00;24.75;;;;;2.71;91.17;102016.98;113233;239;40097;-51
2024/01/21 10:43:26;;;;;;;;;40.25;28.50;;;;;2.70;91.13;102017.40;113268;239;39837;-52
2024/01/21 10:46:09;;;;;;;;;42.25;28.50;;;;;2.71;91.23;102015.50;113245;239;40521;-52
2024/01/21 10:48:51;;;;;;;;;35.25;26.25;;;;;2.64;91.36;102019.75;113222;239;40645;-50
2024/01/21 10:51:29;;;;;;;;;35.00;24.00;;;;;2.66;91.14;102018.70;113213;239;40400;-50
2024/01/21 10:54:08;;;;;;;;;24.33;18.33;;;;;2.67;91.04;102017.74;113241;237;40755;-56
2024/01/21 10:56:43;;;;;;;;;33.00;25.00;;;;;2.70;91.08;102020.56;113065;237;42444;-56
2024/01/21 10:59:20;;;;;;;;;40.50;27.50;;;;;2.77;90.90;102020.13;113068;238;41473;-53
2024/01/21 11:02:00;;;;;;;;;27.00;22.00;;;;;2.81;90.99;102016.83;113090;237;40416;-53
2024/01/21 11:04:47;;;;;;;;;32.50;22.25;;;;;2.90;90.59;102014.82;113107;237;39482;-51
2024/01/21 11:07:28;;;;;;;;;32.00;24.00;;;;;2.85;90.66;102017.98;113099;237;39151;-51
2024/01/21 11:10:08;;;;;;;;;33.25;24.00;;;;;2.81;91.00;102019.48;113112;237;40256;-52
2024/01/21 11:12:45;;;;;;;;;36.00;26.00;;;;;2.92;90.81;102015.54;113126;237;40615;-51
2024/01/21 11:15:35;;;;;;;;;42.50;31.00;;;;;2.95;90.65;102017.15;113125;237;40129;-51
2024/01/21 11:18:23;;;;;;;;;30.25;22.75;;;;;3.06;90.53;102017.65;113121;237;39500;-55
2024/01/21 11:21:01;;;;;;;;;31.50;23.00;;;;;3.11;90.70;102016.13;113088;237;41094;-55
2024/01/21 11:23:42;;;;;;;;;37.00;26.00;;;;;3.14;90.51;102006.12;113104;237;39018;-52
2024/01/21 11:26:35;;;;;;;;;31.00;20.00;;;;;3.08;90.80;102007.23;113069;237;39812;-54
2024/01/21 11:29:30;;;;;;;;;31.25;22.00;;;;;3.02;90.67;102004.38;113113;238;39459;-55
2024/01/21 11:32:09;;;;;;;;;29.75;18.75;;;;;3.12;90.54;102004.10;113123;237;39440;-55
2024/01/21 11:34:48;;;;;;;;;26.00;18.00;;;;;3.16;90.44;102000.80;113122;237;40951;-53
2024/01/21 11:37:29;;;;;;;;;30.50;20.75;;;;;3.09;90.49;101999.13;113116;237;41306;-52
2024/01/21 11:40:06;;;;;;;;;23.00;17.50;;;;;3.10;90.46;101991.40;113144;237;39593;-56
2024/01/21 11:42:50;;;;;;;;;27.75;17.00;;;;;3.09;90.42;101990.95;113143;237;39624;-55
2024/01/21 11:45:30;;;;;;;;;29.75;21.00;;;;;3.15;90.04;101992.46;113135;237;41066;-55
2024/01/21 11:48:10;;;;;;;;;29.00;22.00;;;;;3.21;89.86;101993.66;113129;237;39329;-51
2024/01/21 11:50:48;;;;;;;;;28.00;19.75;;;;;3.24;89.61;101990.27;113100;237;40556;-50
2024/01/21 11:53:24;;;;;;;;;31.25;22.00;;;;;3.30;89.66;101992.52;113112;237;39683;-56
2024/01/21 11:56:02;;;;;;;;;25.50;18.50;;;;;3.36;89.52;101989.09;113132;237;39054;-57
2024/01/21 11:58:40;;;;;;;;;28.00;21.00;;;;;3.37;89.37;101988.85;113129;237;41084;-51
2024/01/21 12:01:18;;;;;;;;;36.67;25.33;;;;;3.40;89.38;101992.52;113118;237;39792;-51
2024/01/21 12:03:58;;;;;;;;;26.00;20.00;;;;;3.46;89.27;101994.24;113122;237;39797;-54
2024/01/21 12:06:37;;;;;;;;;38.00;26.00;;;;;3.56;88.86;101990.35;113114;238;41071;-54
2024/01/21 12:09:20;;;;;;;;;25.25;18.00;;;;;3.61;88.81;101984.14;113126;237;40013;-54
2024/01/21 12:11:59;;;;;;;;;21.00;17.00;;;;;3.55;88.55;101979.38;113105;237;39389;-54